sensor_id;sensor_type;location;lat;lon;timestamp;P1;durP1;ratioP1;P2;durP2;ratioP2
59300;SDS011;45073;52.740;6.784;2023-07-31T00:00:40;6.68;;;2.70;;
59300;SDS011;45073;52.740;6.784;2023-07-31T00:03:05;3.90;;;1.40;;
59300;SDS011;45073;52.740;6.784;2023-07-31T00:05:31;6.75;;;2.03;;
59300;SDS011;45073;52.740;6.784;2023-07-31T00:07:56;6.35;;;2.35;;
59300;SDS011;45073;52.740;6.784;2023-07-31T00:10:22;7.47;;;2.70;;
59300;SDS011;45073;52.740;6.784;2023-07-31T00:12:48;8.02;;;2.65;;
59300;SDS011;45073;52.740;6.784;2023-07-31T00:15:13;4.63;;;1.67;;
59300;SDS011;45073;52.740;6.784;2023-07-31T00:17:39;6.60;;;2.58;;
59300;SDS011;45073;52.740;6.784;2023-07-31T00:20:05;6.03;;;2.00;;
59300;SDS011;45073;52.740;6.784;2023-07-31T00:22:31;6.13;;;2.58;;
59300;SDS011;45073;52.740;6.784;2023-07-31T00:24:56;7.25;;;2.80;;
59300;SDS011;45073;52.740;6.784;2023-07-31T00:27:22;4.82;;;1.52;;
59300;SDS011;45073;52.740;6.784;2023-07-31T00:29:48;4.15;;;1.38;;
59300;SDS011;45073;52.740;6.784;2023-07-31T00:32:14;7.15;;;2.67;;
59300;SDS011;45073;52.740;6.784;2023-07-31T00:34:39;5.45;;;1.40;;
59300;SDS011;45073;52.740;6.784;2023-07-31T00:37:05;6.70;;;2.67;;
59300;SDS011;45073;52.740;6.784;2023-07-31T00:39:31;5.88;;;2.70;;
59300;SDS011;45073;52.740;6.784;2023-07-31T00:41:58;4.82;;;1.67;;
59300;SDS011;45073;52.740;6.784;2023-07-31T00:44:24;9.13;;;1.92;;
59300;SDS011;45073;52.740;6.784;2023-07-31T00:46:49;6.65;;;2.88;;
59300;SDS011;45073;52.740;6.784;2023-07-31T00:49:15;6.18;;;2.67;;
59300;SDS011;45073;52.740;6.784;2023-07-31T00:51:41;5.22;;;1.85;;
59300;SDS011;45073;52.740;6.784;2023-07-31T00:54:07;7.00;;;2.72;;
59300;SDS011;45073;52.740;6.784;2023-07-31T00:56:33;6.55;;;2.63;;
59300;SDS011;45073;52.740;6.784;2023-07-31T00:58:58;7.50;;;2.97;;
59300;SDS011;45073;52.740;6.784;2023-07-31T01:01:24;4.70;;;1.42;;
59300;SDS011;45073;52.740;6.784;2023-07-31T01:03:50;7.00;;;2.90;;
59300;SDS011;45073;52.740;6.784;2023-07-31T01:11:53;7.40;;;2.60;;
59300;SDS011;45073;52.740;6.784;2023-07-31T01:14:21;4.45;;;1.23;;
59300;SDS011;45073;52.740;6.784;2023-07-31T01:16:47;5.20;;;2.25;;
59300;SDS011;45073;52.740;6.784;2023-07-31T01:19:13;5.22;;;2.05;;
59300;SDS011;45073;52.740;6.784;2023-07-31T01:32:42;3.53;;;1.13;;
59300;SDS011;45073;52.740;6.784;2023-07-31T01:35:08;3.95;;;1.17;;
59300;SDS011;45073;52.740;6.784;2023-07-31T01:37:35;3.90;;;1.75;;
59300;SDS011;45073;52.740;6.784;2023-07-31T01:40:01;4.15;;;1.38;;
59300;SDS011;45073;52.740;6.784;2023-07-31T01:42:27;3.47;;;1.25;;
59300;SDS011;45073;52.740;6.784;2023-07-31T01:44:53;4.43;;;1.60;;
59300;SDS011;45073;52.740;6.784;2023-07-31T01:47:18;4.22;;;1.20;;
59300;SDS011;45073;52.740;6.784;2023-07-31T01:49:44;4.32;;;1.60;;
59300;SDS011;45073;52.740;6.784;2023-07-31T01:52:09;4.00;;;1.35;;
59300;SDS011;45073;52.740;6.784;2023-07-31T01:54:35;6.70;;;1.98;;
59300;SDS011;45073;52.740;6.784;2023-07-31T01:57:01;2.97;;;1.30;;
59300;SDS011;45073;52.740;6.784;2023-07-31T01:59:27;3.40;;;1.30;;
59300;SDS011;45073;52.740;6.784;2023-07-31T02:01:54;3.30;;;1.17;;
59300;SDS011;45073;52.740;6.784;2023-07-31T02:04:19;3.55;;;1.60;;
59300;SDS011;45073;52.740;6.784;2023-07-31T02:06:45;4.60;;;1.90;;
59300;SDS011;45073;52.740;6.784;2023-07-31T02:09:10;4.25;;;1.90;;
59300;SDS011;45073;52.740;6.784;2023-07-31T02:11:36;4.53;;;1.75;;
59300;SDS011;45073;52.740;6.784;2023-07-31T02:14:02;3.72;;;0.90;;
59300;SDS011;45073;52.740;6.784;2023-07-31T02:16:27;4.32;;;1.70;;
59300;SDS011;45073;52.740;6.784;2023-07-31T02:18:53;4.68;;;1.60;;
59300;SDS011;45073;52.740;6.784;2023-07-31T02:21:18;1.98;;;0.80;;
59300;SDS011;45073;52.740;6.784;2023-07-31T02:23:44;3.13;;;1.42;;
59300;SDS011;45073;52.740;6.784;2023-07-31T02:26:09;3.95;;;1.60;;
59300;SDS011;45073;52.740;6.784;2023-07-31T02:28:35;4.13;;;1.70;;
59300;SDS011;45073;52.740;6.784;2023-07-31T02:31:01;5.00;;;1.60;;
59300;SDS011;45073;52.740;6.784;2023-07-31T02:33:26;1.17;;;0.70;;
59300;SDS011;45073;52.740;6.784;2023-07-31T02:35:52;3.33;;;1.13;;
59300;SDS011;45073;52.740;6.784;2023-07-31T02:38:18;2.58;;;0.85;;
59300;SDS011;45073;52.740;6.784;2023-07-31T02:40:43;4.68;;;1.55;;
59300;SDS011;45073;52.740;6.784;2023-07-31T02:43:09;3.10;;;1.13;;
59300;SDS011;45073;52.740;6.784;2023-07-31T02:45:35;1.80;;;0.90;;
59300;SDS011;45073;52.740;6.784;2023-07-31T02:48:01;4.97;;;1.20;;
59300;SDS011;45073;52.740;6.784;2023-07-31T02:50:26;4.80;;;1.83;;
59300;SDS011;45073;52.740;6.784;2023-07-31T02:52:53;3.40;;;1.17;;
59300;SDS011;45073;52.740;6.784;2023-07-31T02:55:19;5.80;;;2.10;;
59300;SDS011;45073;52.740;6.784;2023-07-31T02:57:44;3.90;;;1.73;;
59300;SDS011;45073;52.740;6.784;2023-07-31T03:00:10;2.00;;;0.80;;
59300;SDS011;45073;52.740;6.784;2023-07-31T03:02:36;5.75;;;2.08;;
59300;SDS011;45073;52.740;6.784;2023-07-31T03:05:01;5.88;;;2.20;;
59300;SDS011;45073;52.740;6.784;2023-07-31T03:07:27;5.43;;;2.08;;
59300;SDS011;45073;52.740;6.784;2023-07-31T03:09:53;3.97;;;1.20;;
59300;SDS011;45073;52.740;6.784;2023-07-31T03:12:19;4.78;;;1.80;;
59300;SDS011;45073;52.740;6.784;2023-07-31T03:14:44;4.57;;;1.42;;
59300;SDS011;45073;52.740;6.784;2023-07-31T03:17:10;4.18;;;2.10;;
59300;SDS011;45073;52.740;6.784;2023-07-31T03:19:35;3.75;;;1.42;;
59300;SDS011;45073;52.740;6.784;2023-07-31T03:22:01;4.43;;;1.70;;
59300;SDS011;45073;52.740;6.784;2023-07-31T03:24:28;5.03;;;1.77;;
59300;SDS011;45073;52.740;6.784;2023-07-31T03:26:53;4.75;;;1.92;;
59300;SDS011;45073;52.740;6.784;2023-07-31T03:29:19;4.28;;;1.10;;
59300;SDS011;45073;52.740;6.784;2023-07-31T03:31:44;3.10;;;1.23;;
59300;SDS011;45073;52.740;6.784;2023-07-31T03:34:10;4.65;;;1.95;;
59300;SDS011;45073;52.740;6.784;2023-07-31T03:36:36;4.72;;;1.73;;
59300;SDS011;45073;52.740;6.784;2023-07-31T03:39:01;3.72;;;1.13;;
59300;SDS011;45073;52.740;6.784;2023-07-31T03:41:27;4.45;;;1.75;;
59300;SDS011;45073;52.740;6.784;2023-07-31T03:43:52;2.72;;;1.05;;
59300;SDS011;45073;52.740;6.784;2023-07-31T03:46:19;4.40;;;1.70;;
59300;SDS011;45073;52.740;6.784;2023-07-31T03:48:44;4.80;;;1.45;;
59300;SDS011;45073;52.740;6.784;2023-07-31T03:51:10;1.52;;;1.00;;
59300;SDS011;45073;52.740;6.784;2023-07-31T03:53:35;2.88;;;1.13;;
59300;SDS011;45073;52.740;6.784;2023-07-31T03:56:01;2.42;;;1.02;;
59300;SDS011;45073;52.740;6.784;2023-07-31T03:58:27;4.22;;;1.60;;
59300;SDS011;45073;52.740;6.784;2023-07-31T04:00:52;2.33;;;0.95;;
59300;SDS011;45073;52.740;6.784;2023-07-31T04:03:18;4.80;;;1.50;;
59300;SDS011;45073;52.740;6.784;2023-07-31T04:05:44;3.58;;;1.45;;
59300;SDS011;45073;52.740;6.784;2023-07-31T04:08:09;4.32;;;1.50;;
59300;SDS011;45073;52.740;6.784;2023-07-31T04:10:35;4.35;;;1.48;;
59300;SDS011;45073;52.740;6.784;2023-07-31T04:13:00;1.70;;;0.90;;
59300;SDS011;45073;52.740;6.784;2023-07-31T04:15:26;2.70;;;1.00;;
59300;SDS011;45073;52.740;6.784;2023-07-31T04:17:52;3.83;;;0.98;;
59300;SDS011;45073;52.740;6.784;2023-07-31T04:20:17;2.25;;;1.10;;
59300;SDS011;45073;52.740;6.784;2023-07-31T04:22:43;5.35;;;1.50;;
59300;SDS011;45073;52.740;6.784;2023-07-31T04:25:08;4.82;;;1.60;;
59300;SDS011;45073;52.740;6.784;2023-07-31T04:27:34;4.32;;;1.60;;
59300;SDS011;45073;52.740;6.784;2023-07-31T04:29:59;2.08;;;0.73;;
59300;SDS011;45073;52.740;6.784;2023-07-31T04:32:25;4.68;;;1.52;;
59300;SDS011;45073;52.740;6.784;2023-07-31T04:34:51;4.20;;;0.93;;
59300;SDS011;45073;52.740;6.784;2023-07-31T04:37:16;4.50;;;1.65;;
59300;SDS011;45073;52.740;6.784;2023-07-31T04:39:42;4.85;;;1.60;;
59300;SDS011;45073;52.740;6.784;2023-07-31T04:42:07;5.07;;;1.80;;
59300;SDS011;45073;52.740;6.784;2023-07-31T04:44:33;5.00;;;1.40;;
59300;SDS011;45073;52.740;6.784;2023-07-31T04:46:59;6.18;;;2.13;;
59300;SDS011;45073;52.740;6.784;2023-07-31T04:49:24;8.20;;;2.72;;
59300;SDS011;45073;52.740;6.784;2023-07-31T04:51:50;5.93;;;1.73;;
59300;SDS011;45073;52.740;6.784;2023-07-31T04:54:15;7.85;;;2.45;;
59300;SDS011;45073;52.740;6.784;2023-07-31T04:56:41;15.77;;;6.75;;
59300;SDS011;45073;52.740;6.784;2023-07-31T04:59:07;15.95;;;7.43;;
59300;SDS011;45073;52.740;6.784;2023-07-31T05:01:33;16.23;;;7.57;;
59300;SDS011;45073;52.740;6.784;2023-07-31T05:03:58;12.90;;;4.15;;
59300;SDS011;45073;52.740;6.784;2023-07-31T05:06:24;17.45;;;7.78;;
59300;SDS011;45073;52.740;6.784;2023-07-31T05:08:49;18.02;;;8.35;;
59300;SDS011;45073;52.740;6.784;2023-07-31T05:11:15;19.83;;;8.48;;
59300;SDS011;45073;52.740;6.784;2023-07-31T05:13:41;15.07;;;4.88;;
59300;SDS011;45073;52.740;6.784;2023-07-31T05:16:06;18.40;;;8.82;;
59300;SDS011;45073;52.740;6.784;2023-07-31T05:18:32;17.38;;;8.60;;
59300;SDS011;45073;52.740;6.784;2023-07-31T05:20:57;14.60;;;4.95;;
59300;SDS011;45073;52.740;6.784;2023-07-31T05:23:23;14.73;;;5.35;;
59300;SDS011;45073;52.740;6.784;2023-07-31T05:25:48;22.80;;;9.85;;
59300;SDS011;45073;52.740;6.784;2023-07-31T05:28:14;23.98;;;10.35;;
59300;SDS011;45073;52.740;6.784;2023-07-31T05:30:40;18.23;;;6.55;;
59300;SDS011;45073;52.740;6.784;2023-07-31T05:33:05;24.17;;;10.00;;
59300;SDS011;45073;52.740;6.784;2023-07-31T05:35:31;28.33;;;10.93;;
59300;SDS011;45073;52.740;6.784;2023-07-31T05:37:56;24.38;;;10.88;;
59300;SDS011;45073;52.740;6.784;2023-07-31T05:40:22;24.73;;;10.48;;
59300;SDS011;45073;52.740;6.784;2023-07-31T05:42:48;27.33;;;11.32;;
59300;SDS011;45073;52.740;6.784;2023-07-31T05:45:13;26.83;;;10.30;;
59300;SDS011;45073;52.740;6.784;2023-07-31T05:47:39;19.85;;;6.82;;
59300;SDS011;45073;52.740;6.784;2023-07-31T05:50:05;24.00;;;11.18;;
59300;SDS011;45073;52.740;6.784;2023-07-31T05:52:31;25.38;;;10.70;;
59300;SDS011;45073;52.740;6.784;2023-07-31T05:54:56;17.20;;;5.68;;
59300;SDS011;45073;52.740;6.784;2023-07-31T05:57:22;23.67;;;10.90;;
59300;SDS011;45073;52.740;6.784;2023-07-31T05:59:47;25.98;;;11.52;;
59300;SDS011;45073;52.740;6.784;2023-07-31T06:02:13;24.45;;;11.50;;
59300;SDS011;45073;52.740;6.784;2023-07-31T06:04:39;24.30;;;12.02;;
59300;SDS011;45073;52.740;6.784;2023-07-31T06:07:04;21.58;;;11.30;;
59300;SDS011;45073;52.740;6.784;2023-07-31T06:09:30;20.75;;;6.55;;
59300;SDS011;45073;52.740;6.784;2023-07-31T06:11:59;25.83;;;12.32;;
59300;SDS011;45073;52.740;6.784;2023-07-31T06:14:24;16.55;;;6.82;;
59300;SDS011;45073;52.740;6.784;2023-07-31T06:16:50;23.73;;;12.27;;
59300;SDS011;45073;52.740;6.784;2023-07-31T06:19:15;20.15;;;6.43;;
59300;SDS011;45073;52.740;6.784;2023-07-31T06:21:41;24.75;;;11.65;;
59300;SDS011;45073;52.740;6.784;2023-07-31T06:24:09;19.88;;;8.10;;
59300;SDS011;45073;52.740;6.784;2023-07-31T06:26:37;26.08;;;12.07;;
59300;SDS011;45073;52.740;6.784;2023-07-31T06:29:02;23.23;;;12.75;;
59300;SDS011;45073;52.740;6.784;2023-07-31T06:31:28;16.27;;;6.25;;
59300;SDS011;45073;52.740;6.784;2023-07-31T06:33:54;26.10;;;12.07;;
59300;SDS011;45073;52.740;6.784;2023-07-31T06:36:19;23.80;;;12.38;;
59300;SDS011;45073;52.740;6.784;2023-07-31T06:38:45;24.15;;;12.02;;
59300;SDS011;45073;52.740;6.784;2023-07-31T06:41:10;25.08;;;11.38;;
59300;SDS011;45073;52.740;6.784;2023-07-31T06:43:36;18.00;;;6.78;;
59300;SDS011;45073;52.740;6.784;2023-07-31T06:46:05;23.33;;;11.68;;
59300;SDS011;45073;52.740;6.784;2023-07-31T06:48:32;24.52;;;10.90;;
59300;SDS011;45073;52.740;6.784;2023-07-31T06:50:58;19.00;;;7.32;;
59300;SDS011;45073;52.740;6.784;2023-07-31T06:53:25;21.38;;;10.38;;
59300;SDS011;45073;52.740;6.784;2023-07-31T06:55:50;19.83;;;6.88;;
59300;SDS011;45073;52.740;6.784;2023-07-31T06:58:17;21.25;;;10.50;;
59300;SDS011;45073;52.740;6.784;2023-07-31T07:00:43;13.10;;;5.90;;
59300;SDS011;45073;52.740;6.784;2023-07-31T07:03:08;23.23;;;10.73;;
59300;SDS011;45073;52.740;6.784;2023-07-31T07:05:34;19.88;;;10.70;;
59300;SDS011;45073;52.740;6.784;2023-07-31T07:08:00;20.08;;;9.52;;
59300;SDS011;45073;52.740;6.784;2023-07-31T07:10:25;18.45;;;8.65;;
59300;SDS011;45073;52.740;6.784;2023-07-31T07:12:51;12.57;;;4.35;;
59300;SDS011;45073;52.740;6.784;2023-07-31T07:15:17;16.73;;;7.88;;
59300;SDS011;45073;52.740;6.784;2023-07-31T07:17:43;15.55;;;8.27;;
59300;SDS011;45073;52.740;6.784;2023-07-31T07:20:08;18.38;;;8.50;;
59300;SDS011;45073;52.740;6.784;2023-07-31T07:22:34;16.40;;;7.93;;
59300;SDS011;45073;52.740;6.784;2023-07-31T07:25:00;16.90;;;7.97;;
59300;SDS011;45073;52.740;6.784;2023-07-31T07:27:26;11.93;;;4.15;;
59300;SDS011;45073;52.740;6.784;2023-07-31T07:29:52;17.38;;;7.70;;
59300;SDS011;45073;52.740;6.784;2023-07-31T07:32:18;17.17;;;7.97;;
59300;SDS011;45073;52.740;6.784;2023-07-31T07:34:44;16.15;;;7.90;;
59300;SDS011;45073;52.740;6.784;2023-07-31T07:37:09;15.38;;;4.85;;
59300;SDS011;45073;52.740;6.784;2023-07-31T07:39:35;15.65;;;7.43;;
59300;SDS011;45073;52.740;6.784;2023-07-31T07:42:00;15.63;;;8.00;;
59300;SDS011;45073;52.740;6.784;2023-07-31T07:44:26;14.88;;;8.07;;
59300;SDS011;45073;52.740;6.784;2023-07-31T07:46:52;13.68;;;7.22;;
59300;SDS011;45073;52.740;6.784;2023-07-31T07:49:17;16.17;;;7.15;;
59300;SDS011;45073;52.740;6.784;2023-07-31T07:51:43;13.65;;;7.57;;
59300;SDS011;45073;52.740;6.784;2023-07-31T07:54:09;12.50;;;3.92;;
59300;SDS011;45073;52.740;6.784;2023-07-31T07:56:34;13.05;;;6.72;;
59300;SDS011;45073;52.740;6.784;2023-07-31T07:59:01;13.75;;;7.38;;
59300;SDS011;45073;52.740;6.784;2023-07-31T08:01:27;12.85;;;6.85;;
59300;SDS011;45073;52.740;6.784;2023-07-31T08:03:52;8.95;;;4.10;;
59300;SDS011;45073;52.740;6.784;2023-07-31T08:06:18;12.55;;;4.57;;
59300;SDS011;45073;52.740;6.784;2023-07-31T08:08:44;11.43;;;5.95;;
59300;SDS011;45073;52.740;6.784;2023-07-31T08:11:09;11.50;;;5.70;;
59300;SDS011;45073;52.740;6.784;2023-07-31T08:13:35;9.20;;;3.70;;
59300;SDS011;45073;52.740;6.784;2023-07-31T08:16:02;7.40;;;4.18;;
59300;SDS011;45073;52.740;6.784;2023-07-31T08:18:29;9.75;;;4.60;;
59300;SDS011;45073;52.740;6.784;2023-07-31T08:20:55;7.57;;;3.17;;
59300;SDS011;45073;52.740;6.784;2023-07-31T08:23:21;8.80;;;5.00;;
59300;SDS011;45073;52.740;6.784;2023-07-31T08:25:46;10.40;;;4.97;;
59300;SDS011;45073;52.740;6.784;2023-07-31T08:28:14;11.05;;;5.40;;
59300;SDS011;45073;52.740;6.784;2023-07-31T08:30:40;9.77;;;4.53;;
59300;SDS011;45073;52.740;6.784;2023-07-31T08:33:07;8.88;;;4.50;;
59300;SDS011;45073;52.740;6.784;2023-07-31T08:35:32;8.27;;;2.80;;
59300;SDS011;45073;52.740;6.784;2023-07-31T08:37:58;8.55;;;4.20;;
59300;SDS011;45073;52.740;6.784;2023-07-31T08:40:24;7.28;;;3.58;;
59300;SDS011;45073;52.740;6.784;2023-07-31T08:42:51;9.20;;;3.67;;
59300;SDS011;45073;52.740;6.784;2023-07-31T08:45:19;8.68;;;3.80;;
59300;SDS011;45073;52.740;6.784;2023-07-31T08:47:49;8.07;;;3.55;;
59300;SDS011;45073;52.740;6.784;2023-07-31T08:50:16;7.70;;;2.97;;
59300;SDS011;45073;52.740;6.784;2023-07-31T08:52:44;7.38;;;3.80;;
59300;SDS011;45073;52.740;6.784;2023-07-31T08:55:11;5.35;;;2.35;;
59300;SDS011;45073;52.740;6.784;2023-07-31T08:57:37;8.15;;;3.65;;
59300;SDS011;45073;52.740;6.784;2023-07-31T09:00:04;8.50;;;3.50;;
59300;SDS011;45073;52.740;6.784;2023-07-31T09:02:32;7.75;;;3.08;;
59300;SDS011;45073;52.740;6.784;2023-07-31T09:05:06;7.22;;;3.30;;
59300;SDS011;45073;52.740;6.784;2023-07-31T09:07:33;7.55;;;3.05;;
59300;SDS011;45073;52.740;6.784;2023-07-31T09:10:00;7.18;;;3.60;;
59300;SDS011;45073;52.740;6.784;2023-07-31T09:12:26;7.95;;;3.55;;
59300;SDS011;45073;52.740;6.784;2023-07-31T09:14:53;4.93;;;1.73;;
59300;SDS011;45073;52.740;6.784;2023-07-31T09:17:35;6.68;;;3.08;;
59300;SDS011;45073;52.740;6.784;2023-07-31T09:22:50;3.60;;;1.35;;
59300;SDS011;45073;52.740;6.784;2023-07-31T09:25:20;5.28;;;2.20;;
59300;SDS011;45073;52.740;6.784;2023-07-31T09:27:48;5.70;;;2.28;;
59300;SDS011;45073;52.740;6.784;2023-07-31T09:30:14;5.40;;;2.28;;
59300;SDS011;45073;52.740;6.784;2023-07-31T09:32:40;4.13;;;1.25;;
59300;SDS011;45073;52.740;6.784;2023-07-31T09:35:22;3.88;;;1.58;;
59300;SDS011;45073;52.740;6.784;2023-07-31T09:41:08;4.35;;;1.55;;
59300;SDS011;45073;52.740;6.784;2023-07-31T09:43:36;2.65;;;1.00;;
59300;SDS011;45073;52.740;6.784;2023-07-31T09:46:22;3.33;;;1.40;;
59300;SDS011;45073;52.740;6.784;2023-07-31T09:48:47;4.00;;;1.48;;
59300;SDS011;45073;52.740;6.784;2023-07-31T09:51:13;4.45;;;1.50;;
59300;SDS011;45073;52.740;6.784;2023-07-31T09:53:39;2.67;;;1.52;;
59300;SDS011;45073;52.740;6.784;2023-07-31T09:56:04;3.80;;;1.65;;
59300;SDS011;45073;52.740;6.784;2023-07-31T09:58:30;3.10;;;1.30;;
59300;SDS011;45073;52.740;6.784;2023-07-31T10:00:59;4.03;;;1.50;;
59300;SDS011;45073;52.740;6.784;2023-07-31T10:03:26;4.47;;;2.25;;
59300;SDS011;45073;52.740;6.784;2023-07-31T10:05:55;2.67;;;1.38;;
59300;SDS011;45073;52.740;6.784;2023-07-31T10:08:23;3.90;;;1.63;;
59300;SDS011;45073;52.740;6.784;2023-07-31T10:10:58;4.82;;;2.20;;
59300;SDS011;45073;52.740;6.784;2023-07-31T10:13:25;4.38;;;1.95;;
59300;SDS011;45073;52.740;6.784;2023-07-31T10:15:54;4.65;;;1.55;;
59300;SDS011;45073;52.740;6.784;2023-07-31T10:18:23;5.20;;;2.22;;
59300;SDS011;45073;52.740;6.784;2023-07-31T10:20:49;4.60;;;2.17;;
59300;SDS011;45073;52.740;6.784;2023-07-31T10:23:15;5.43;;;2.38;;
59300;SDS011;45073;52.740;6.784;2023-07-31T10:25:41;4.85;;;2.85;;
59300;SDS011;45073;52.740;6.784;2023-07-31T10:28:07;5.82;;;2.78;;
59300;SDS011;45073;52.740;6.784;2023-07-31T10:30:33;6.93;;;2.97;;
59300;SDS011;45073;52.740;6.784;2023-07-31T10:33:03;5.32;;;2.80;;
59300;SDS011;45073;52.740;6.784;2023-07-31T10:35:29;6.38;;;3.13;;
59300;SDS011;45073;52.740;6.784;2023-07-31T10:37:55;5.90;;;2.72;;
59300;SDS011;45073;52.740;6.784;2023-07-31T10:40:25;5.05;;;2.58;;
59300;SDS011;45073;52.740;6.784;2023-07-31T10:42:52;5.60;;;2.72;;
59300;SDS011;45073;52.740;6.784;2023-07-31T10:47:59;5.60;;;2.40;;
59300;SDS011;45073;52.740;6.784;2023-07-31T10:50:26;5.45;;;2.35;;
59300;SDS011;45073;52.740;6.784;2023-07-31T10:52:55;5.30;;;2.30;;
59300;SDS011;45073;52.740;6.784;2023-07-31T10:58:13;4.60;;;2.40;;
59300;SDS011;45073;52.740;6.784;2023-07-31T11:00:43;5.05;;;2.28;;
59300;SDS011;45073;52.740;6.784;2023-07-31T11:05:51;5.40;;;2.72;;
59300;SDS011;45073;52.740;6.784;2023-07-31T11:08:22;5.30;;;2.63;;
59300;SDS011;45073;52.740;6.784;2023-07-31T11:13:28;5.28;;;2.70;;
59300;SDS011;45073;52.740;6.784;2023-07-31T11:15:56;7.18;;;3.10;;
59300;SDS011;45073;52.740;6.784;2023-07-31T11:18:22;5.80;;;3.00;;
59300;SDS011;45073;52.740;6.784;2023-07-31T11:20:48;5.85;;;3.20;;
59300;SDS011;45073;52.740;6.784;2023-07-31T11:23:15;7.10;;;2.95;;
59300;SDS011;45073;52.740;6.784;2023-07-31T11:25:41;6.30;;;3.03;;
59300;SDS011;45073;52.740;6.784;2023-07-31T11:28:11;5.20;;;2.65;;
59300;SDS011;45073;52.740;6.784;2023-07-31T11:30:37;5.15;;;2.40;;
59300;SDS011;45073;52.740;6.784;2023-07-31T11:33:06;4.68;;;2.28;;
59300;SDS011;45073;52.740;6.784;2023-07-31T11:35:32;5.75;;;2.38;;
59300;SDS011;45073;52.740;6.784;2023-07-31T11:37:59;4.25;;;2.22;;
59300;SDS011;45073;52.740;6.784;2023-07-31T11:40:25;3.75;;;1.45;;
59300;SDS011;45073;52.740;6.784;2023-07-31T11:42:55;4.43;;;2.40;;
59300;SDS011;45073;52.740;6.784;2023-07-31T11:45:21;5.60;;;3.00;;
59300;SDS011;45073;52.740;6.784;2023-07-31T11:47:56;5.57;;;3.00;;
59300;SDS011;45073;52.740;6.784;2023-07-31T11:50:23;6.50;;;3.10;;
59300;SDS011;45073;52.740;6.784;2023-07-31T11:52:51;5.18;;;2.80;;
59300;SDS011;45073;52.740;6.784;2023-07-31T11:55:24;6.93;;;3.63;;
59300;SDS011;45073;52.740;6.784;2023-07-31T11:57:51;5.97;;;2.60;;
59300;SDS011;45073;52.740;6.784;2023-07-31T12:00:18;5.93;;;2.75;;
59300;SDS011;45073;52.740;6.784;2023-07-31T12:02:44;5.70;;;2.80;;
59300;SDS011;45073;52.740;6.784;2023-07-31T12:05:11;6.05;;;2.83;;
59300;SDS011;45073;52.740;6.784;2023-07-31T12:07:47;5.60;;;2.97;;
59300;SDS011;45073;52.740;6.784;2023-07-31T12:10:31;6.45;;;3.38;;
59300;SDS011;45073;52.740;6.784;2023-07-31T12:13:02;6.18;;;2.72;;
59300;SDS011;45073;52.740;6.784;2023-07-31T12:15:40;2.55;;;1.35;;
59300;SDS011;45073;52.740;6.784;2023-07-31T12:18:09;5.75;;;2.97;;
59300;SDS011;45073;52.740;6.784;2023-07-31T12:20:42;5.28;;;2.35;;
59300;SDS011;45073;52.740;6.784;2023-07-31T12:23:19;4.40;;;2.35;;
59300;SDS011;45073;52.740;6.784;2023-07-31T12:28:34;7.38;;;3.90;;
59300;SDS011;45073;52.740;6.784;2023-07-31T12:31:08;6.90;;;3.90;;
59300;SDS011;45073;52.740;6.784;2023-07-31T12:33:35;9.65;;;4.93;;
59300;SDS011;45073;52.740;6.784;2023-07-31T12:36:03;7.70;;;4.82;;
59300;SDS011;45073;52.740;6.784;2023-07-31T12:38:31;10.43;;;6.00;;
59300;SDS011;45073;52.740;6.784;2023-07-31T12:40:57;8.50;;;5.60;;
59300;SDS011;45073;52.740;6.784;2023-07-31T12:43:23;9.75;;;6.32;;
59300;SDS011;45073;52.740;6.784;2023-07-31T12:45:48;7.95;;;4.65;;
59300;SDS011;45073;52.740;6.784;2023-07-31T12:48:14;5.38;;;2.22;;
59300;SDS011;45073;52.740;6.784;2023-07-31T12:50:40;6.13;;;2.33;;
59300;SDS011;45073;52.740;6.784;2023-07-31T12:53:05;7.20;;;2.47;;
59300;SDS011;45073;52.740;6.784;2023-07-31T12:55:31;7.88;;;2.35;;
59300;SDS011;45073;52.740;6.784;2023-07-31T12:57:59;8.93;;;2.85;;
59300;SDS011;45073;52.740;6.784;2023-07-31T13:00:25;6.95;;;2.45;;
59300;SDS011;45073;52.740;6.784;2023-07-31T13:02:51;5.80;;;2.80;;
59300;SDS011;45073;52.740;6.784;2023-07-31T13:05:17;7.90;;;2.65;;
59300;SDS011;45073;52.740;6.784;2023-07-31T13:07:44;6.60;;;2.97;;
59300;SDS011;45073;52.740;6.784;2023-07-31T13:10:10;8.85;;;3.50;;
59300;SDS011;45073;52.740;6.784;2023-07-31T13:12:36;8.18;;;4.00;;
59300;SDS011;45073;52.740;6.784;2023-07-31T13:15:02;8.60;;;4.90;;
59300;SDS011;45073;52.740;6.784;2023-07-31T13:17:28;8.50;;;5.10;;
59300;SDS011;45073;52.740;6.784;2023-07-31T13:19:54;8.55;;;5.30;;
59300;SDS011;45073;52.740;6.784;2023-07-31T13:22:19;8.20;;;5.00;;
59300;SDS011;45073;52.740;6.784;2023-07-31T13:24:45;8.45;;;5.38;;
59300;SDS011;45073;52.740;6.784;2023-07-31T13:27:10;9.02;;;5.05;;
59300;SDS011;45073;52.740;6.784;2023-07-31T13:29:36;8.18;;;4.68;;
59300;SDS011;45073;52.740;6.784;2023-07-31T13:32:02;8.73;;;5.00;;
59300;SDS011;45073;52.740;6.784;2023-07-31T13:34:27;8.10;;;4.65;;
59300;SDS011;45073;52.740;6.784;2023-07-31T13:36:54;8.10;;;4.47;;
59300;SDS011;45073;52.740;6.784;2023-07-31T13:39:20;7.68;;;4.15;;
59300;SDS011;45073;52.740;6.784;2023-07-31T13:41:46;8.05;;;5.10;;
59300;SDS011;45073;52.740;6.784;2023-07-31T13:44:11;8.63;;;5.30;;
59300;SDS011;45073;52.740;6.784;2023-07-31T13:46:37;7.45;;;3.88;;
59300;SDS011;45073;52.740;6.784;2023-07-31T13:49:02;10.93;;;4.82;;
59300;SDS011;45073;52.740;6.784;2023-07-31T13:51:28;7.45;;;3.90;;
59300;SDS011;45073;52.740;6.784;2023-07-31T13:53:54;8.98;;;4.63;;
59300;SDS011;45073;52.740;6.784;2023-07-31T13:56:19;8.90;;;5.65;;
59300;SDS011;45073;52.740;6.784;2023-07-31T13:58:45;10.48;;;6.20;;
59300;SDS011;45073;52.740;6.784;2023-07-31T14:01:10;10.20;;;6.20;;
59300;SDS011;45073;52.740;6.784;2023-07-31T14:03:36;9.43;;;5.70;;
59300;SDS011;45073;52.740;6.784;2023-07-31T14:06:02;8.52;;;5.40;;
59300;SDS011;45073;52.740;6.784;2023-07-31T14:08:27;8.98;;;4.57;;
59300;SDS011;45073;52.740;6.784;2023-07-31T14:10:54;7.50;;;4.22;;
59300;SDS011;45073;52.740;6.784;2023-07-31T14:13:20;8.20;;;4.05;;
59300;SDS011;45073;52.740;6.784;2023-07-31T14:15:46;8.35;;;3.88;;
59300;SDS011;45073;52.740;6.784;2023-07-31T14:18:11;8.60;;;3.58;;
59300;SDS011;45073;52.740;6.784;2023-07-31T14:20:37;7.32;;;3.28;;
59300;SDS011;45073;52.740;6.784;2023-07-31T14:23:03;8.25;;;3.90;;
59300;SDS011;45073;52.740;6.784;2023-07-31T14:25:28;8.32;;;3.47;;
59300;SDS011;45073;52.740;6.784;2023-07-31T14:27:54;8.15;;;3.28;;
59300;SDS011;45073;52.740;6.784;2023-07-31T14:30:20;7.63;;;3.90;;
59300;SDS011;45073;52.740;6.784;2023-07-31T14:32:45;11.38;;;3.92;;
59300;SDS011;45073;52.740;6.784;2023-07-31T14:35:11;8.10;;;4.10;;
59300;SDS011;45073;52.740;6.784;2023-07-31T14:37:38;9.70;;;3.60;;
59300;SDS011;45073;52.740;6.784;2023-07-31T14:40:05;8.55;;;3.42;;
59300;SDS011;45073;52.740;6.784;2023-07-31T14:42:32;7.70;;;3.40;;
59300;SDS011;45073;52.740;6.784;2023-07-31T14:44:57;8.07;;;3.60;;
59300;SDS011;45073;52.740;6.784;2023-07-31T14:47:23;7.70;;;3.88;;
59300;SDS011;45073;52.740;6.784;2023-07-31T14:49:48;8.95;;;3.80;;
59300;SDS011;45073;52.740;6.784;2023-07-31T14:52:14;8.40;;;3.58;;
59300;SDS011;45073;52.740;6.784;2023-07-31T14:54:39;7.82;;;3.53;;
59300;SDS011;45073;52.740;6.784;2023-07-31T14:57:05;8.18;;;3.70;;
59300;SDS011;45073;52.740;6.784;2023-07-31T14:59:31;8.88;;;3.50;;
59300;SDS011;45073;52.740;6.784;2023-07-31T15:01:56;6.60;;;3.28;;
59300;SDS011;45073;52.740;6.784;2023-07-31T15:04:22;8.57;;;3.65;;
59300;SDS011;45073;52.740;6.784;2023-07-31T15:06:48;6.85;;;3.50;;
59300;SDS011;45073;52.740;6.784;2023-07-31T15:09:15;8.30;;;3.63;;
59300;SDS011;45073;52.740;6.784;2023-07-31T15:11:40;7.28;;;3.35;;
59300;SDS011;45073;52.740;6.784;2023-07-31T15:14:06;8.32;;;4.20;;